sensor_id;sensor_type;location;lat;lon;timestamp;P1;durP1;ratioP1;P2;durP2;ratioP2
47335;SDS011;33068;51.990;5.926;2022-10-16T00:01:14;5.20;;;3.22;;
47335;SDS011;33068;51.990;5.926;2022-10-16T00:03:46;11.65;;;3.45;;
47335;SDS011;33068;51.990;5.926;2022-10-16T00:06:14;5.90;;;2.65;;
47335;SDS011;33068;51.990;5.926;2022-10-16T00:08:43;5.60;;;2.85;;
47335;SDS011;33068;51.990;5.926;2022-10-16T00:11:12;5.10;;;2.83;;
47335;SDS011;33068;51.990;5.926;2022-10-16T00:13:41;6.47;;;2.90;;
47335;SDS011;33068;51.990;5.926;2022-10-16T00:16:10;7.45;;;3.65;;
47335;SDS011;33068;51.990;5.926;2022-10-16T00:18:38;8.65;;;3.80;;
47335;SDS011;33068;51.990;5.926;2022-10-16T00:21:08;5.25;;;3.80;;
47335;SDS011;33068;51.990;5.926;2022-10-16T00:23:37;10.90;;;4.07;;
47335;SDS011;33068;51.990;5.926;2022-10-16T00:26:05;6.22;;;3.83;;
47335;SDS011;33068;51.990;5.926;2022-10-16T00:28:34;6.97;;;3.65;;
47335;SDS011;33068;51.990;5.926;2022-10-16T00:31:02;6.43;;;3.70;;
47335;SDS011;33068;51.990;5.926;2022-10-16T00:33:30;8.77;;;3.70;;
47335;SDS011;33068;51.990;5.926;2022-10-16T00:35:57;10.82;;;3.65;;
47335;SDS011;33068;51.990;5.926;2022-10-16T00:38:27;9.75;;;4.47;;
47335;SDS011;33068;51.990;5.926;2022-10-16T00:40:54;6.72;;;3.75;;
47335;SDS011;33068;51.990;5.926;2022-10-16T00:43:35;7.55;;;4.10;;
47335;SDS011;33068;51.990;5.926;2022-10-16T00:46:05;8.32;;;3.75;;
47335;SDS011;33068;51.990;5.926;2022-10-16T00:48:39;8.60;;;4.30;;
47335;SDS011;33068;51.990;5.926;2022-10-16T00:51:06;6.70;;;4.45;;
47335;SDS011;33068;51.990;5.926;2022-10-16T00:53:36;8.73;;;3.97;;
47335;SDS011;33068;51.990;5.926;2022-10-16T00:56:03;10.88;;;4.00;;
47335;SDS011;33068;51.990;5.926;2022-10-16T00:58:30;9.32;;;4.18;;
47335;SDS011;33068;51.990;5.926;2022-10-16T01:00:58;11.68;;;3.95;;
47335;SDS011;33068;51.990;5.926;2022-10-16T01:03:26;8.68;;;3.83;;
47335;SDS011;33068;51.990;5.926;2022-10-16T01:05:58;9.05;;;4.13;;
47335;SDS011;33068;51.990;5.926;2022-10-16T01:08:47;6.03;;;3.58;;
47335;SDS011;33068;51.990;5.926;2022-10-16T01:11:25;8.75;;;3.88;;
47335;SDS011;33068;51.990;5.926;2022-10-16T01:14:00;7.00;;;4.15;;
47335;SDS011;33068;51.990;5.926;2022-10-16T01:16:34;6.47;;;4.72;;
47335;SDS011;33068;51.990;5.926;2022-10-16T01:19:05;8.00;;;4.47;;
47335;SDS011;33068;51.990;5.926;2022-10-16T01:21:39;10.25;;;4.40;;
47335;SDS011;33068;51.990;5.926;2022-10-16T01:24:15;8.60;;;4.35;;
47335;SDS011;33068;51.990;5.926;2022-10-16T01:27:02;6.22;;;4.20;;
47335;SDS011;33068;51.990;5.926;2022-10-16T01:29:36;8.95;;;4.50;;
47335;SDS011;33068;51.990;5.926;2022-10-16T01:32:10;9.60;;;4.80;;
47335;SDS011;33068;51.990;5.926;2022-10-16T01:34:44;6.82;;;4.82;;
47335;SDS011;33068;51.990;5.926;2022-10-16T01:37:16;7.43;;;4.40;;
47335;SDS011;33068;51.990;5.926;2022-10-16T01:39:51;5.18;;;4.25;;
47335;SDS011;33068;51.990;5.926;2022-10-16T01:42:26;10.10;;;4.70;;
47335;SDS011;33068;51.990;5.926;2022-10-16T01:44:57;7.50;;;4.32;;
47335;SDS011;33068;51.990;5.926;2022-10-16T01:47:25;8.75;;;4.80;;
47335;SDS011;33068;51.990;5.926;2022-10-16T01:49:53;5.55;;;4.30;;
47335;SDS011;33068;51.990;5.926;2022-10-16T01:52:23;10.30;;;4.63;;
47335;SDS011;33068;51.990;5.926;2022-10-16T01:54:53;6.50;;;4.10;;
47335;SDS011;33068;51.990;5.926;2022-10-16T01:57:23;6.55;;;3.83;;
47335;SDS011;33068;51.990;5.926;2022-10-16T01:59:54;6.00;;;4.13;;
47335;SDS011;33068;51.990;5.926;2022-10-16T02:02:37;4.82;;;3.28;;
47335;SDS011;33068;51.990;5.926;2022-10-16T02:05:09;4.72;;;3.63;;
47335;SDS011;33068;51.990;5.926;2022-10-16T02:07:41;9.10;;;4.00;;
47335;SDS011;33068;51.990;5.926;2022-10-16T02:10:09;8.52;;;3.75;;
47335;SDS011;33068;51.990;5.926;2022-10-16T02:12:39;4.78;;;3.50;;
47335;SDS011;33068;51.990;5.926;2022-10-16T02:15:08;5.32;;;3.47;;
47335;SDS011;33068;51.990;5.926;2022-10-16T02:17:35;4.80;;;3.42;;
47335;SDS011;33068;51.990;5.926;2022-10-16T02:20:03;6.07;;;3.72;;
47335;SDS011;33068;51.990;5.926;2022-10-16T02:22:32;4.35;;;3.42;;
47335;SDS011;33068;51.990;5.926;2022-10-16T02:25:03;7.45;;;3.63;;
47335;SDS011;33068;51.990;5.926;2022-10-16T02:27:34;9.45;;;3.78;;
47335;SDS011;33068;51.990;5.926;2022-10-16T02:30:08;5.72;;;3.53;;
47335;SDS011;33068;51.990;5.926;2022-10-16T02:32:41;4.22;;;3.17;;
47335;SDS011;33068;51.990;5.926;2022-10-16T02:35:10;6.70;;;3.78;;
47335;SDS011;33068;51.990;5.926;2022-10-16T02:37:38;7.15;;;2.55;;
47335;SDS011;33068;51.990;5.926;2022-10-16T02:40:07;4.40;;;3.28;;
47335;SDS011;33068;51.990;5.926;2022-10-16T02:42:36;4.65;;;2.70;;
47335;SDS011;33068;51.990;5.926;2022-10-16T02:45:07;5.93;;;2.85;;
47335;SDS011;33068;51.990;5.926;2022-10-16T02:47:36;9.50;;;3.55;;
47335;SDS011;33068;51.990;5.926;2022-10-16T02:50:03;6.15;;;3.17;;
47335;SDS011;33068;51.990;5.926;2022-10-16T02:52:31;4.40;;;2.95;;
47335;SDS011;33068;51.990;5.926;2022-10-16T02:54:58;4.85;;;2.65;;
47335;SDS011;33068;51.990;5.926;2022-10-16T02:57:25;4.35;;;3.08;;
47335;SDS011;33068;51.990;5.926;2022-10-16T02:59:52;4.65;;;2.78;;
47335;SDS011;33068;51.990;5.926;2022-10-16T03:02:20;4.07;;;2.65;;
47335;SDS011;33068;51.990;5.926;2022-10-16T03:04:47;6.63;;;2.40;;
47335;SDS011;33068;51.990;5.926;2022-10-16T03:07:14;4.22;;;2.70;;
47335;SDS011;33068;51.990;5.926;2022-10-16T03:09:41;5.68;;;2.45;;
47335;SDS011;33068;51.990;5.926;2022-10-16T03:12:08;3.72;;;2.55;;
47335;SDS011;33068;51.990;5.926;2022-10-16T03:14:37;2.47;;;2.03;;
47335;SDS011;33068;51.990;5.926;2022-10-16T03:17:05;5.32;;;2.90;;
47335;SDS011;33068;51.990;5.926;2022-10-16T03:19:33;4.43;;;2.47;;
47335;SDS011;33068;51.990;5.926;2022-10-16T03:22:01;4.20;;;2.67;;
47335;SDS011;33068;51.990;5.926;2022-10-16T03:24:28;3.83;;;2.38;;
47335;SDS011;33068;51.990;5.926;2022-10-16T03:26:55;4.10;;;1.95;;
47335;SDS011;33068;51.990;5.926;2022-10-16T03:29:22;4.97;;;2.38;;
47335;SDS011;33068;51.990;5.926;2022-10-16T03:31:51;7.07;;;2.75;;
47335;SDS011;33068;51.990;5.926;2022-10-16T03:34:18;5.97;;;2.10;;
47335;SDS011;33068;51.990;5.926;2022-10-16T03:36:46;3.85;;;2.20;;
47335;SDS011;33068;51.990;5.926;2022-10-16T03:39:13;3.78;;;2.55;;
47335;SDS011;33068;51.990;5.926;2022-10-16T03:41:40;5.25;;;2.10;;
47335;SDS011;33068;51.990;5.926;2022-10-16T03:44:08;2.38;;;1.98;;
47335;SDS011;33068;51.990;5.926;2022-10-16T03:46:35;3.55;;;2.03;;
47335;SDS011;33068;51.990;5.926;2022-10-16T03:49:02;2.88;;;2.30;;
47335;SDS011;33068;51.990;5.926;2022-10-16T03:51:29;3.95;;;2.20;;
47335;SDS011;33068;51.990;5.926;2022-10-16T03:53:57;7.30;;;2.85;;
47335;SDS011;33068;51.990;5.926;2022-10-16T03:56:25;4.22;;;2.42;;
47335;SDS011;33068;51.990;5.926;2022-10-16T03:58:52;3.65;;;2.30;;
47335;SDS011;33068;51.990;5.926;2022-10-16T04:01:19;4.07;;;2.38;;
47335;SDS011;33068;51.990;5.926;2022-10-16T04:03:46;3.40;;;2.17;;
47335;SDS011;33068;51.990;5.926;2022-10-16T04:06:13;2.70;;;2.30;;
47335;SDS011;33068;51.990;5.926;2022-10-16T04:08:41;3.22;;;2.05;;
47335;SDS011;33068;51.990;5.926;2022-10-16T04:11:10;2.28;;;2.03;;
47335;SDS011;33068;51.990;5.926;2022-10-16T04:13:37;3.78;;;1.92;;
47335;SDS011;33068;51.990;5.926;2022-10-16T04:16:04;6.25;;;2.30;;
47335;SDS011;33068;51.990;5.926;2022-10-16T04:18:31;3.08;;;2.05;;
47335;SDS011;33068;51.990;5.926;2022-10-16T04:21:01;2.75;;;2.05;;
47335;SDS011;33068;51.990;5.926;2022-10-16T04:23:29;5.28;;;2.25;;
47335;SDS011;33068;51.990;5.926;2022-10-16T04:25:56;2.97;;;2.10;;
47335;SDS011;33068;51.990;5.926;2022-10-16T04:28:25;5.18;;;2.50;;
47335;SDS011;33068;51.990;5.926;2022-10-16T04:30:52;3.13;;;1.95;;
47335;SDS011;33068;51.990;5.926;2022-10-16T04:33:19;8.57;;;2.42;;
47335;SDS011;33068;51.990;5.926;2022-10-16T04:35:46;3.28;;;1.88;;
47335;SDS011;33068;51.990;5.926;2022-10-16T04:38:13;5.30;;;2.75;;
47335;SDS011;33068;51.990;5.926;2022-10-16T04:40:41;6.32;;;2.03;;
47335;SDS011;33068;51.990;5.926;2022-10-16T04:43:08;2.58;;;1.83;;
47335;SDS011;33068;51.990;5.926;2022-10-16T04:45:37;3.70;;;1.90;;
47335;SDS011;33068;51.990;5.926;2022-10-16T04:48:04;3.30;;;2.00;;
47335;SDS011;33068;51.990;5.926;2022-10-16T04:50:31;3.80;;;1.85;;
47335;SDS011;33068;51.990;5.926;2022-10-16T04:53:04;5.18;;;2.00;;
47335;SDS011;33068;51.990;5.926;2022-10-16T04:55:32;2.88;;;2.15;;
47335;SDS011;33068;51.990;5.926;2022-10-16T04:57:59;2.38;;;1.80;;
47335;SDS011;33068;51.990;5.926;2022-10-16T05:00:26;2.83;;;2.00;;
47335;SDS011;33068;51.990;5.926;2022-10-16T05:02:55;3.70;;;1.77;;
47335;SDS011;33068;51.990;5.926;2022-10-16T05:05:22;4.80;;;1.75;;
47335;SDS011;33068;51.990;5.926;2022-10-16T05:07:49;4.05;;;2.30;;
47335;SDS011;33068;51.990;5.926;2022-10-16T05:10:16;4.05;;;2.53;;
47335;SDS011;33068;51.990;5.926;2022-10-16T05:12:43;2.95;;;1.98;;
47335;SDS011;33068;51.990;5.926;2022-10-16T05:15:10;3.90;;;2.13;;
47335;SDS011;33068;51.990;5.926;2022-10-16T05:17:37;4.63;;;2.50;;
47335;SDS011;33068;51.990;5.926;2022-10-16T05:20:06;2.97;;;1.83;;
47335;SDS011;33068;51.990;5.926;2022-10-16T05:22:34;5.32;;;2.63;;
47335;SDS011;33068;51.990;5.926;2022-10-16T05:25:01;4.28;;;1.95;;
47335;SDS011;33068;51.990;5.926;2022-10-16T05:27:28;3.90;;;2.42;;
47335;SDS011;33068;51.990;5.926;2022-10-16T05:29:55;3.70;;;1.75;;
47335;SDS011;33068;51.990;5.926;2022-10-16T05:32:22;3.40;;;2.13;;
47335;SDS011;33068;51.990;5.926;2022-10-16T05:34:50;7.57;;;2.75;;
47335;SDS011;33068;51.990;5.926;2022-10-16T05:37:18;4.20;;;2.45;;
47335;SDS011;33068;51.990;5.926;2022-10-16T05:39:45;4.20;;;1.95;;
47335;SDS011;33068;51.990;5.926;2022-10-16T05:42:12;4.65;;;2.05;;
47335;SDS011;33068;51.990;5.926;2022-10-16T05:44:40;4.45;;;2.20;;
47335;SDS011;33068;51.990;5.926;2022-10-16T05:47:07;4.55;;;2.47;;
47335;SDS011;33068;51.990;5.926;2022-10-16T05:49:34;3.78;;;2.20;;
47335;SDS011;33068;51.990;5.926;2022-10-16T05:52:01;3.70;;;2.35;;
47335;SDS011;33068;51.990;5.926;2022-10-16T05:54:29;4.05;;;1.90;;
47335;SDS011;33068;51.990;5.926;2022-10-16T05:56:56;3.25;;;1.98;;
47335;SDS011;33068;51.990;5.926;2022-10-16T05:59:23;2.80;;;2.30;;
47335;SDS011;33068;51.990;5.926;2022-10-16T06:01:50;3.72;;;1.90;;
47335;SDS011;33068;51.990;5.926;2022-10-16T06:04:18;5.10;;;2.53;;
47335;SDS011;33068;51.990;5.926;2022-10-16T06:06:45;3.78;;;2.95;;
47335;SDS011;33068;51.990;5.926;2022-10-16T06:09:12;3.10;;;2.65;;
47335;SDS011;33068;51.990;5.926;2022-10-16T06:11:41;5.63;;;2.63;;
47335;SDS011;33068;51.990;5.926;2022-10-16T06:14:08;4.43;;;2.55;;
47335;SDS011;33068;51.990;5.926;2022-10-16T06:16:36;5.13;;;2.70;;
47335;SDS011;33068;51.990;5.926;2022-10-16T06:19:04;3.00;;;2.60;;
47335;SDS011;33068;51.990;5.926;2022-10-16T06:21:33;5.65;;;2.45;;
47335;SDS011;33068;51.990;5.926;2022-10-16T06:24:00;4.18;;;3.03;;
47335;SDS011;33068;51.990;5.926;2022-10-16T06:26:28;6.72;;;2.88;;
47335;SDS011;33068;51.990;5.926;2022-10-16T06:28:58;4.43;;;2.78;;
47335;SDS011;33068;51.990;5.926;2022-10-16T06:31:26;5.38;;;2.47;;
47335;SDS011;33068;51.990;5.926;2022-10-16T06:33:56;4.03;;;2.92;;
47335;SDS011;33068;51.990;5.926;2022-10-16T06:36:24;4.63;;;3.20;;
47335;SDS011;33068;51.990;5.926;2022-10-16T06:38:51;9.75;;;3.40;;
47335;SDS011;33068;51.990;5.926;2022-10-16T06:41:19;4.22;;;3.60;;
47335;SDS011;33068;51.990;5.926;2022-10-16T06:43:47;4.45;;;2.72;;
47335;SDS011;33068;51.990;5.926;2022-10-16T06:46:17;8.65;;;2.95;;
47335;SDS011;33068;51.990;5.926;2022-10-16T06:48:46;4.03;;;3.13;;
47335;SDS011;33068;51.990;5.926;2022-10-16T06:51:13;2.80;;;2.42;;
47335;SDS011;33068;51.990;5.926;2022-10-16T06:53:43;4.10;;;2.90;;
47335;SDS011;33068;51.990;5.926;2022-10-16T06:56:13;6.10;;;3.00;;
47335;SDS011;33068;51.990;5.926;2022-10-16T06:58:41;6.65;;;2.53;;
47335;SDS011;33068;51.990;5.926;2022-10-16T07:01:09;3.47;;;2.70;;
47335;SDS011;33068;51.990;5.926;2022-10-16T07:03:38;3.90;;;2.80;;
47335;SDS011;33068;51.990;5.926;2022-10-16T07:06:08;4.20;;;2.15;;
47335;SDS011;33068;51.990;5.926;2022-10-16T07:08:37;4.65;;;2.42;;
47335;SDS011;33068;51.990;5.926;2022-10-16T07:11:07;3.40;;;2.45;;
47335;SDS011;33068;51.990;5.926;2022-10-16T07:13:35;3.75;;;2.53;;
47335;SDS011;33068;51.990;5.926;2022-10-16T07:16:04;5.95;;;2.90;;
47335;SDS011;33068;51.990;5.926;2022-10-16T07:18:32;2.67;;;2.33;;
47335;SDS011;33068;51.990;5.926;2022-10-16T07:21:04;6.13;;;3.13;;
47335;SDS011;33068;51.990;5.926;2022-10-16T07:23:33;5.38;;;2.55;;
47335;SDS011;33068;51.990;5.926;2022-10-16T07:26:00;2.92;;;2.17;;
47335;SDS011;33068;51.990;5.926;2022-10-16T07:28:27;4.22;;;2.80;;
47335;SDS011;33068;51.990;5.926;2022-10-16T07:30:55;6.03;;;2.15;;
47335;SDS011;33068;51.990;5.926;2022-10-16T07:33:22;3.92;;;2.13;;
47335;SDS011;33068;51.990;5.926;2022-10-16T07:35:49;6.28;;;2.80;;
47335;SDS011;33068;51.990;5.926;2022-10-16T07:38:18;6.57;;;1.67;;
47335;SDS011;33068;51.990;5.926;2022-10-16T07:40:45;3.50;;;2.72;;
47335;SDS011;33068;51.990;5.926;2022-10-16T07:43:13;5.03;;;2.70;;
47335;SDS011;33068;51.990;5.926;2022-10-16T07:45:46;4.72;;;2.28;;
47335;SDS011;33068;51.990;5.926;2022-10-16T07:48:14;5.18;;;2.17;;
47335;SDS011;33068;51.990;5.926;2022-10-16T07:50:42;6.25;;;2.55;;
47335;SDS011;33068;51.990;5.926;2022-10-16T07:53:09;4.63;;;2.20;;
47335;SDS011;33068;51.990;5.926;2022-10-16T07:55:38;4.88;;;2.33;;
47335;SDS011;33068;51.990;5.926;2022-10-16T07:58:05;3.55;;;1.90;;
47335;SDS011;33068;51.990;5.926;2022-10-16T08:00:33;5.28;;;1.83;;
47335;SDS011;33068;51.990;5.926;2022-10-16T08:03:02;8.90;;;2.45;;
47335;SDS011;33068;51.990;5.926;2022-10-16T08:05:29;3.58;;;2.13;;
47335;SDS011;33068;51.990;5.926;2022-10-16T08:07:58;5.05;;;1.92;;
47335;SDS011;33068;51.990;5.926;2022-10-16T08:10:26;5.30;;;2.08;;
47335;SDS011;33068;51.990;5.926;2022-10-16T08:12:55;5.35;;;2.15;;
47335;SDS011;33068;51.990;5.926;2022-10-16T08:15:22;7.60;;;2.22;;
47335;SDS011;33068;51.990;5.926;2022-10-16T08:17:57;9.90;;;2.42;;
47335;SDS011;33068;51.990;5.926;2022-10-16T08:20:25;8.65;;;1.75;;
47335;SDS011;33068;51.990;5.926;2022-10-16T08:22:52;3.67;;;2.10;;
47335;SDS011;33068;51.990;5.926;2022-10-16T08:25:20;3.13;;;1.85;;
47335;SDS011;33068;51.990;5.926;2022-10-16T08:27:48;2.53;;;1.65;;
47335;SDS011;33068;51.990;5.926;2022-10-16T08:30:17;3.85;;;1.58;;
47335;SDS011;33068;51.990;5.926;2022-10-16T08:32:45;3.50;;;1.92;;
47335;SDS011;33068;51.990;5.926;2022-10-16T08:35:12;1.85;;;1.73;;
47335;SDS011;33068;51.990;5.926;2022-10-16T08:37:40;4.95;;;1.88;;
47335;SDS011;33068;51.990;5.926;2022-10-16T08:40:13;7.60;;;2.20;;
47335;SDS011;33068;51.990;5.926;2022-10-16T08:42:47;3.95;;;1.92;;
47335;SDS011;33068;51.990;5.926;2022-10-16T08:45:38;6.45;;;2.08;;
47335;SDS011;33068;51.990;5.926;2022-10-16T08:48:17;5.72;;;2.20;;
47335;SDS011;33068;51.990;5.926;2022-10-16T08:50:49;4.28;;;2.25;;
47335;SDS011;33068;51.990;5.926;2022-10-16T08:53:18;4.85;;;1.73;;
47335;SDS011;33068;51.990;5.926;2022-10-16T08:55:51;2.95;;;1.52;;
47335;SDS011;33068;51.990;5.926;2022-10-16T08:58:20;6.78;;;1.95;;
47335;SDS011;33068;51.990;5.926;2022-10-16T09:00:52;15.02;;;2.38;;
47335;SDS011;33068;51.990;5.926;2022-10-16T09:03:23;4.80;;;1.73;;
47335;SDS011;33068;51.990;5.926;2022-10-16T09:06:09;3.97;;;1.70;;
47335;SDS011;33068;51.990;5.926;2022-10-16T09:08:58;4.93;;;2.03;;
47335;SDS011;33068;51.990;5.926;2022-10-16T09:11:39;3.97;;;1.50;;
47335;SDS011;33068;51.990;5.926;2022-10-16T09:14:17;3.03;;;1.20;;
47335;SDS011;33068;51.990;5.926;2022-10-16T09:17:08;5.10;;;1.38;;
47335;SDS011;33068;51.990;5.926;2022-10-16T09:19:50;3.53;;;1.48;;
47335;SDS011;33068;51.990;5.926;2022-10-16T09:22:21;5.47;;;0.93;;
47335;SDS011;33068;51.990;5.926;2022-10-16T09:24:53;9.38;;;1.00;;
47335;SDS011;33068;51.990;5.926;2022-10-16T09:27:21;6.18;;;1.17;;
47335;SDS011;33068;51.990;5.926;2022-10-16T09:29:49;4.03;;;1.10;;
47335;SDS011;33068;51.990;5.926;2022-10-16T09:32:18;1.90;;;0.70;;
47335;SDS011;33068;51.990;5.926;2022-10-16T09:34:47;4.82;;;0.70;;
47335;SDS011;33068;51.990;5.926;2022-10-16T09:37:18;5.85;;;1.50;;
47335;SDS011;33068;51.990;5.926;2022-10-16T09:39:48;4.10;;;1.15;;
47335;SDS011;33068;51.990;5.926;2022-10-16T09:42:16;5.18;;;1.45;;
47335;SDS011;33068;51.990;5.926;2022-10-16T09:44:47;6.13;;;0.82;;
47335;SDS011;33068;51.990;5.926;2022-10-16T09:47:18;5.47;;;0.90;;
47335;SDS011;33068;51.990;5.926;2022-10-16T09:49:51;8.35;;;0.88;;
47335;SDS011;33068;51.990;5.926;2022-10-16T09:52:19;6.65;;;0.85;;
47335;SDS011;33068;51.990;5.926;2022-10-16T09:54:50;10.90;;;1.13;;
47335;SDS011;33068;51.990;5.926;2022-10-16T09:57:18;4.13;;;1.00;;
47335;SDS011;33068;51.990;5.926;2022-10-16T09:59:46;7.05;;;0.93;;
47335;SDS011;33068;51.990;5.926;2022-10-16T10:02:15;4.53;;;0.90;;
47335;SDS011;33068;51.990;5.926;2022-10-16T10:04:48;6.40;;;0.80;;
47335;SDS011;33068;51.990;5.926;2022-10-16T10:07:20;5.53;;;1.08;;
47335;SDS011;33068;51.990;5.926;2022-10-16T10:09:51;10.27;;;1.35;;
47335;SDS011;33068;51.990;5.926;2022-10-16T10:12:20;3.15;;;0.95;;
47335;SDS011;33068;51.990;5.926;2022-10-16T10:14:48;15.50;;;1.67;;
47335;SDS011;33068;51.990;5.926;2022-10-16T10:17:19;3.58;;;1.42;;
47335;SDS011;33068;51.990;5.926;2022-10-16T10:19:52;4.47;;;1.10;;
47335;SDS011;33068;51.990;5.926;2022-10-16T10:22:28;5.20;;;0.93;;
47335;SDS011;33068;51.990;5.926;2022-10-16T10:25:10;7.97;;;1.05;;
47335;SDS011;33068;51.990;5.926;2022-10-16T10:27:52;4.50;;;1.10;;
47335;SDS011;33068;51.990;5.926;2022-10-16T10:30:39;7.00;;;1.15;;
47335;SDS011;33068;51.990;5.926;2022-10-16T10:33:17;7.95;;;0.70;;
47335;SDS011;33068;51.990;5.926;2022-10-16T10:35:52;10.52;;;1.13;;
47335;SDS011;33068;51.990;5.926;2022-10-16T10:38:30;6.38;;;0.70;;
47335;SDS011;33068;51.990;5.926;2022-10-16T10:41:09;5.20;;;0.70;;
47335;SDS011;33068;51.990;5.926;2022-10-16T10:43:52;6.53;;;1.15;;
47335;SDS011;33068;51.990;5.926;2022-10-16T10:49:03;8.48;;;0.93;;
47335;SDS011;33068;51.990;5.926;2022-10-16T10:51:40;3.50;;;0.50;;
47335;SDS011;33068;51.990;5.926;2022-10-16T10:54:16;5.68;;;0.57;;
47335;SDS011;33068;51.990;5.926;2022-10-16T10:56:51;12.48;;;1.77;;
47335;SDS011;33068;51.990;5.926;2022-10-16T11:05:05;6.85;;;0.65;;
47335;SDS011;33068;51.990;5.926;2022-10-16T11:07:57;7.30;;;0.80;;
47335;SDS011;33068;51.990;5.926;2022-10-16T11:10:27;6.30;;;0.80;;
47335;SDS011;33068;51.990;5.926;2022-10-16T11:12:58;7.05;;;0.93;;
47335;SDS011;33068;51.990;5.926;2022-10-16T11:15:31;6.60;;;0.70;;
47335;SDS011;33068;51.990;5.926;2022-10-16T11:18:03;8.02;;;0.70;;
47335;SDS011;33068;51.990;5.926;2022-10-16T11:20:37;8.32;;;0.95;;
47335;SDS011;33068;51.990;5.926;2022-10-16T11:23:10;10.02;;;1.02;;
47335;SDS011;33068;51.990;5.926;2022-10-16T11:25:43;9.55;;;0.80;;
47335;SDS011;33068;51.990;5.926;2022-10-16T11:28:11;12.20;;;1.30;;
47335;SDS011;33068;51.990;5.926;2022-10-16T11:30:43;10.25;;;1.15;;
47335;SDS011;33068;51.990;5.926;2022-10-16T11:33:20;9.32;;;0.68;;
47335;SDS011;33068;51.990;5.926;2022-10-16T11:35:55;9.45;;;1.00;;
47335;SDS011;33068;51.990;5.926;2022-10-16T11:38:29;7.22;;;0.63;;
47335;SDS011;33068;51.990;5.926;2022-10-16T11:41:02;6.18;;;0.88;;
47335;SDS011;33068;51.990;5.926;2022-10-16T11:43:37;7.88;;;0.60;;
47335;SDS011;33068;51.990;5.926;2022-10-16T11:46:08;5.88;;;0.70;;
47335;SDS011;33068;51.990;5.926;2022-10-16T11:48:41;4.47;;;0.68;;
47335;SDS011;33068;51.990;5.926;2022-10-16T11:51:16;8.18;;;0.70;;
47335;SDS011;33068;51.990;5.926;2022-10-16T11:53:51;7.95;;;1.00;;
47335;SDS011;33068;51.990;5.926;2022-10-16T11:56:25;7.60;;;0.50;;
47335;SDS011;33068;51.990;5.926;2022-10-16T11:58:55;5.10;;;0.70;;
47335;SDS011;33068;51.990;5.926;2022-10-16T12:01:27;5.78;;;0.68;;
47335;SDS011;33068;51.990;5.926;2022-10-16T12:04:06;10.23;;;0.85;;
47335;SDS011;33068;51.990;5.926;2022-10-16T12:06:45;7.37;;;1.13;;
47335;SDS011;33068;51.990;5.926;2022-10-16T12:09:18;11.32;;;1.10;;
47335;SDS011;33068;51.990;5.926;2022-10-16T12:11:49;8.15;;;0.70;;
47335;SDS011;33068;51.990;5.926;2022-10-16T12:14:21;12.35;;;0.60;;
47335;SDS011;33068;51.990;5.926;2022-10-16T12:17:02;4.22;;;0.60;;
47335;SDS011;33068;51.990;5.926;2022-10-16T12:19:31;7.97;;;1.00;;
47335;SDS011;33068;51.990;5.926;2022-10-16T12:22:01;8.80;;;0.73;;
47335;SDS011;33068;51.990;5.926;2022-10-16T12:24:33;8.48;;;0.80;;
47335;SDS011;33068;51.990;5.926;2022-10-16T12:27:03;8.35;;;0.77;;
47335;SDS011;33068;51.990;5.926;2022-10-16T12:29:32;10.70;;;1.70;;
47335;SDS011;33068;51.990;5.926;2022-10-16T12:32:02;5.35;;;0.70;;
47335;SDS011;33068;51.990;5.926;2022-10-16T12:34:34;8.77;;;1.27;;
47335;SDS011;33068;51.990;5.926;2022-10-16T12:37:11;4.43;;;0.75;;
47335;SDS011;33068;51.990;5.926;2022-10-16T12:39:44;8.02;;;0.93;;
47335;SDS011;33068;51.990;5.926;2022-10-16T12:42:20;9.75;;;0.90;;
47335;SDS011;33068;51.990;5.926;2022-10-16T12:44:50;8.05;;;1.15;;
47335;SDS011;33068;51.990;5.926;2022-10-16T12:47:21;6.38;;;0.65;;
47335;SDS011;33068;51.990;5.926;2022-10-16T12:49:50;4.40;;;0.50;;
47335;SDS011;33068;51.990;5.926;2022-10-16T12:52:34;9.80;;;0.77;;
47335;SDS011;33068;51.990;5.926;2022-10-16T12:55:03;6.70;;;0.80;;
47335;SDS011;33068;51.990;5.926;2022-10-16T12:57:38;11.45;;;0.95;;
47335;SDS011;33068;51.990;5.926;2022-10-16T13:00:19;4.25;;;0.85;;
47335;SDS011;33068;51.990;5.926;2022-10-16T13:03:00;10.98;;;0.98;;
47335;SDS011;33068;51.990;5.926;2022-10-16T13:05:50;5.68;;;0.70;;
47335;SDS011;33068;51.990;5.926;2022-10-16T13:08:39;5.63;;;0.90;;
47335;SDS011;33068;51.990;5.926;2022-10-16T13:11:20;8.40;;;0.73;;
47335;SDS011;33068;51.990;5.926;2022-10-16T13:14:05;8.02;;;1.15;;
47335;SDS011;33068;51.990;5.926;2022-10-16T13:16:49;8.00;;;1.02;;
47335;SDS011;33068;51.990;5.926;2022-10-16T13:19:23;5.97;;;0.70;;
47335;SDS011;33068;51.990;5.926;2022-10-16T13:21:59;4.20;;;0.82;;
47335;SDS011;33068;51.990;5.926;2022-10-16T13:24:40;7.20;;;1.45;;
47335;SDS011;33068;51.990;5.926;2022-10-16T13:27:18;6.75;;;1.08;;
47335;SDS011;33068;51.990;5.926;2022-10-16T13:30:00;3.97;;;0.90;;
47335;SDS011;33068;51.990;5.926;2022-10-16T13:32:35;9.00;;;0.80;;
47335;SDS011;33068;51.990;5.926;2022-10-16T13:35:02;8.95;;;1.02;;
47335;SDS011;33068;51.990;5.926;2022-10-16T13:37:30;13.35;;;1.00;;
47335;SDS011;33068;51.990;5.926;2022-10-16T13:40:11;11.38;;;1.80;;
47335;SDS011;33068;51.990;5.926;2022-10-16T13:42:45;8.55;;;1.02;;
47335;SDS011;33068;51.990;5.926;2022-10-16T13:45:19;5.60;;;1.00;;
47335;SDS011;33068;51.990;5.926;2022-10-16T13:47:47;12.35;;;0.90;;
47335;SDS011;33068;51.990;5.926;2022-10-16T13:50:15;3.97;;;0.57;;
47335;SDS011;33068;51.990;5.926;2022-10-16T13:52:44;3.30;;;0.52;;
47335;SDS011;33068;51.990;5.926;2022-10-16T13:55:13;8.25;;;0.88;;
47335;SDS011;33068;51.990;5.926;2022-10-16T13:57:42;4.85;;;0.77;;
47335;SDS011;33068;51.990;5.926;2022-10-16T14:00:19;5.07;;;0.60;;
47335;SDS011;33068;51.990;5.926;2022-10-16T14:02:50;5.68;;;0.73;;
47335;SDS011;33068;51.990;5.926;2022-10-16T14:05:21;7.90;;;0.82;;
47335;SDS011;33068;51.990;5.926;2022-10-16T14:07:49;7.63;;;0.68;;
47335;SDS011;33068;51.990;5.926;2022-10-16T14:10:22;12.15;;;1.52;;
47335;SDS011;33068;51.990;5.926;2022-10-16T14:12:55;9.30;;;0.90;;
47335;SDS011;33068;51.990;5.926;2022-10-16T14:15:26;7.03;;;1.33;;
47335;SDS011;33068;51.990;5.926;2022-10-16T14:17:55;12.75;;;1.20;;
47335;SDS011;33068;51.990;5.926;2022-10-16T14:20:24;8.48;;;1.10;;
47335;SDS011;33068;51.990;5.926;2022-10-16T14:23:00;10.75;;;0.50;;
47335;SDS011;33068;51.990;5.926;2022-10-16T14:25:30;5.22;;;0.75;;
47335;SDS011;33068;51.990;5.926;2022-10-16T14:28:00;4.40;;;0.63;;
47335;SDS011;33068;51.990;5.926;2022-10-16T14:30:29;9.48;;;0.73;;
47335;SDS011;33068;51.990;5.926;2022-10-16T14:32:58;5.45;;;0.70;;
47335;SDS011;33068;51.990;5.926;2022-10-16T14:35:28;8.05;;;1.00;;
47335;SDS011;33068;51.990;5.926;2022-10-16T14:37:57;10.80;;;1.15;;
47335;SDS011;33068;51.990;5.926;2022-10-16T14:40:26;5.90;;;0.90;;
47335;SDS011;33068;51.990;5.926;2022-10-16T14:42:57;6.00;;;1.20;;
47335;SDS011;33068;51.990;5.926;2022-10-16T14:45:26;6.18;;;1.15;;
47335;SDS011;33068;51.990;5.926;2022-10-16T14:47:56;5.07;;;0.60;;
47335;SDS011;33068;51.990;5.926;2022-10-16T14:50:26;7.60;;;1.40;;
47335;SDS011;33068;51.990;5.926;2022-10-16T14:52:53;4.38;;;0.88;;
47335;SDS011;33068;51.990;5.926;2022-10-16T14:55:21;6.13;;;0.50;;
47335;SDS011;33068;51.990;5.926;2022-10-16T14:57:48;6.53;;;0.98;;
47335;SDS011;33068;51.990;5.926;2022-10-16T15:00:18;4.82;;;0.80;;
47335;SDS011;33068;51.990;5.926;2022-10-16T15:02:48;5.30;;;0.55;;
47335;SDS011;33068;51.990;5.926;2022-10-16T15:05:17;12.80;;;1.33;;
47335;SDS011;33068;51.990;5.926;2022-10-16T15:07:47;3.88;;;0.55;;
47335;SDS011;33068;51.990;5.926;2022-10-16T15:10:15;8.15;;;0.70;;
47335;SDS011;33068;51.990;5.926;2022-10-16T15:12:43;8.60;;;1.08;;
47335;SDS011;33068;51.990;5.926;2022-10-16T15:15:26;6.28;;;0.98;;